Time;durP1;ratioP1;P1;durP2;ratioP2;P2;SDS_P1;SDS_P2;PMS_P1;PMS_P2;Temp;Humidity;BMP_temperature;BMP_pressure;BME280_temperature;BME280_humidity;BME280_pressure;Samples;Min_cycle;Max_cycle;Signal;HPM_P1;HPM_P2
2021/04/08 08:15:22;;;;;;;47.13;22.62;;;;;;;4.66;100.00;99977.58;11166877;77;22305;-76
2021/04/08 08:30:33;;;;;;;38.00;16.20;;;;;;;4.50;100.00;100007.19;10761681;80;98745;-75
2021/04/08 08:45:38;;;;;;;19.35;9.28;;;;;;;4.41;100.00;100033.78;10713640;81;98773;-80
2021/04/08 09:00:43;;;;;;;110.83;52.80;;;;;;;4.84;100.00;100049.55;10553873;81;98738;-74
2021/04/08 09:15:48;;;;;;;36.20;19.17;;;;;;;4.88;100.00;100074.39;10853193;81;98995;-76
2021/04/08 09:31:03;;;;;;;19.12;12.13;;;;;;;5.44;100.00;100084.94;10789100;79;98904;-77
2021/04/08 09:46:09;;;;;;;24.27;11.83;;;;;;;6.67;100.00;100100.02;10836193;81;98756;-75
2021/04/08 10:01:16;;;;;;;44.65;22.48;;;;;;;6.70;100.00;100114.59;10802742;81;98772;-76
2021/04/08 10:16:20;;;;;;;18.35;9.55;;;;;;;7.40;98.36;100133.66;10833533;79;97863;-77
2021/04/08 10:31:28;;;;;;;15.15;9.98;;;;;;;7.86;78.57;100142.31;10796756;81;98409;-78
2021/04/08 10:46:34;;;;;;;20.13;8.53;;;;;;;7.17;88.46;100166.27;10811434;81;98481;-78
2021/04/08 11:01:38;;;;;;;13.13;6.72;;;;;;;7.64;87.18;100189.66;10842979;81;98462;-84
2021/04/08 11:16:44;;;;;;;18.15;9.90;;;;;;;7.80;80.63;100197.98;10827850;81;98424;-80
2021/04/08 11:32:02;;;;;;;54.70;21.85;;;;;;;8.03;82.08;100212.33;10813192;81;98470;-79
2021/04/08 11:47:15;;;;;;;14.67;7.27;;;;;;;9.77;74.27;100218.72;10897478;79;98723;-70
2021/04/08 12:02:31;;;;;;;12.35;6.92;;;;;;;9.79;68.35;100220.25;10667389;79;98304;-72
2021/04/08 12:17:36;;;;;;;106.30;38.63;;;;;;;10.26;69.10;100215.75;9918030;88;98465;-74
2021/04/08 12:32:41;;;;;;;42.30;18.85;;;;;;;10.25;63.51;100236.87;9634721;90;98872;-73
2021/04/08 12:47:46;;;;;;;7.65;3.98;;;;;;;9.76;63.56;100238.83;9768057;89;98619;-74
2021/04/08 13:02:51;;;;;;;17.48;6.33;;;;;;;10.45;58.15;100256.97;9826824;84;98471;-71
2021/04/08 13:17:58;;;;;;;27.77;13.70;;;;;;;10.83;62.41;100275.50;10013934;86;98674;-70
2021/04/08 13:33:02;;;;;;;11.78;6.30;;;;;;;9.77;61.22;100295.52;10301645;85;98949;-70
2021/04/08 13:48:08;;;;;;;11.65;5.28;;;;;;;8.13;67.29;100350.45;10133365;86;98570;-71
2021/04/08 14:03:12;;;;;;;69.65;24.75;;;;;;;7.80;72.05;100344.73;10276599;85;98599;-70
2021/04/08 14:18:16;;;;;;;9.65;5.90;;;;;;;11.30;59.02;100350.48;10172974;86;98778;-70
2021/04/08 14:33:22;;;;;;;10.05;5.87;;;;;;;18.52;44.03;100364.64;10161095;85;98573;-69
2021/04/08 14:48:26;;;;;;;7.47;4.50;;;;;;;19.61;42.39;100368.53;10171702;85;98850;-70
2021/04/08 15:03:32;;;;;;;7.78;4.70;;;;;;;10.98;57.85;100416.37;10144241;87;98840;-70
2021/04/08 15:18:36;;;;;;;20.23;17.98;;;;;;;9.30;67.65;100412.42;9981193;88;98461;-69
2021/04/08 15:33:40;;;;;;;86.17;33.48;;;;;;;7.22;78.26;100412.02;10015377;87;98530;-69
2021/04/08 15:48:44;;;;;;;152.30;51.75;;;;;;;6.18;90.67;100484.78;9795072;88;98644;-69
2021/04/08 16:03:49;;;;;;;93.30;32.03;;;;;;;5.80;100.00;100507.14;9888764;88;97772;-69
2021/04/08 16:18:53;;;;;;;198.07;66.28;;;;;;;6.48;100.00;100483.67;9924731;86;98699;-69
2021/04/08 16:33:58;;;;;;;371.05;144.60;;;;;;;6.25;100.00;100499.05;10042683;87;98750;-72
2021/04/08 16:49:02;;;;;;;44.17;19.83;;;;;;;6.20;99.03;100501.61;9966189;87;99104;-73
2021/04/08 17:04:07;;;;;;;25.10;15.53;;;;;;;5.57;100.00;100554.18;9959963;85;98420;-72
2021/04/08 17:19:12;;;;;;;71.90;36.58;;;;;;;4.68;100.00;100529.70;10015325;83;98582;-71
2021/04/08 17:34:18;;;;;;;31.27;14.15;;;;;;;4.97;100.00;100548.27;10229686;85;98700;-72
2021/04/08 17:49:22;;;;;;;37.15;17.62;;;;;;;5.06;100.00;100569.47;10250455;83;98940;-71
2021/04/08 18:04:27;;;;;;;42.62;18.77;;;;;;;5.15;100.00;100592.31;10251750;84;98781;-72
2021/04/08 18:19:31;;;;;;;19.35;8.00;;;;;;;4.89;100.00;100643.27;10428064;82;99010;-70
2021/04/08 18:34:37;;;;;;;26.48;11.50;;;;;;;4.81;100.00;100666.64;10561915;83;98680;-67
2021/04/08 18:49:41;;;;;;;29.57;12.23;;;;;;;4.75;100.00;100664.41;10549692;82;98683;-72
2021/04/08 19:04:45;;;;;;;38.35;16.73;;;;;;;4.78;100.00;100682.42;10557249;83;98828;-74
2021/04/08 19:19:50;;;;;;;96.65;30.25;;;;;;;4.87;100.00;100685.41;10417447;83;98882;-72
2021/04/08 19:34:56;;;;;;;30.43;11.95;;;;;;;4.87;100.00;100689.31;10445661;83;99014;-72
2021/04/08 19:50:01;;;;;;;41.40;16.52;;;;;;;4.80;100.00;100705.28;10451524;83;98905;-73
2021/04/08 20:05:09;;;;;;;25.70;9.60;;;;;;;4.78;100.00;100721.89;10303125;83;98797;-72
2021/04/08 20:20:14;;;;;;;;;;;;;;;4.61;100.00;100729.33;10334243;82;98784;-73
2021/04/08 20:35:22;;;;;;;22.90;10.82;;;;;;;4.44;100.00;100741.48;10326704;84;83982;-72
2021/04/08 20:50:27;;;;;;;15.90;8.15;;;;;;;4.18;100.00;100748.09;10284221;84;98972;-73
2021/04/08 21:05:32;;;;;;;12.80;5.90;;;;;;;3.94;100.00;100761.94;10205299;85;99137;-69
2021/04/08 21:20:36;;;;;;;21.50;9.50;;;;;;;3.83;100.00;100760.73;10188609;86;99541;-72
2021/04/08 21:35:40;;;;;;;19.75;8.28;;;;;;;3.70;100.00;100774.45;10183457;85;98627;-69
2021/04/08 21:50:46;;;;;;;22.22;9.30;;;;;;;3.35;100.00;100777.06;10405448;83;97688;-69
2021/04/08 22:05:50;;;;;;;13.45;6.25;;;;;;;3.16;100.00;100790.47;10394276;85;98597;-69
2021/04/08 22:20:55;;;;;;;16.67;8.13;;;;;;;2.90;100.00;100799.97;10438153;83;98751;-69
2021/04/08 22:36:02;;;;;;;16.75;7.83;;;;;;;2.70;100.00;100805.63;10356919;83;97578;-69
2021/04/08 22:51:06;;;;;;;26.27;9.53;;;;;;;2.66;100.00;100801.05;10315178;83;97644;-69
2021/04/08 23:06:12;;;;;;;20.68;9.40;;;;;;;2.55;100.00;100792.95;10467974;82;97592;-72
2021/04/08 23:21:16;;;;;;;25.62;9.80;;;;;;;2.55;100.00;100785.19;10401113;83;99444;-72
2021/04/08 23:36:20;;;;;;;132.20;46.55;;;;;;;2.58;100.00;100786.33;10475342;82;98754;-72
2021/04/08 23:51:24;;;;;;;107.25;50.58;;;;;;;2.61;100.00;100785.34;10616558;80;98086;-73
